Time;durP1;ratioP1;P1;durP2;ratioP2;P2;SDS_P1;SDS_P2;PMS_P1;PMS_P2;Temp;Humidity;BMP_temperature;BMP_pressure;BME280_temperature;BME280_humidity;BME280_pressure;Samples;Min_cycle;Max_cycle;Signal;HPM_P1;HPM_P2
2021/12/13 00:01:10;;;;;;;6.70;4.72;;;6.70;99.90;;;;;;6282521;22;20204;-52
2021/12/13 00:03:48;;;;;;;5.03;4.30;;;7.30;99.90;;;;;;6270096;22;20199;-52
2021/12/13 00:06:19;;;;;;;4.25;3.92;;;7.30;99.90;;;;;;6275849;22;20247;-52
2021/12/13 00:08:53;;;;;;;6.95;4.43;;;6.90;99.90;;;;;;6285979;22;20137;-52
2021/12/13 00:11:23;;;;;;;4.45;4.05;;;7.20;99.90;;;;;;6274982;22;20147;-52
2021/12/13 00:13:57;;;;;;;5.72;4.03;;;7.10;99.90;;;;;;6286135;22;20176;-52
2021/12/13 00:16:37;;;;;;;4.78;4.28;;;6.70;99.90;;;;;;6285494;22;20163;-52
2021/12/13 00:19:12;;;;;;;5.05;4.55;;;7.40;99.90;;;;;;6274469;22;20211;-53
2021/12/13 00:21:44;;;;;;;5.70;4.10;;;7.10;99.90;;;;;;6275343;22;20478;-53
2021/12/13 00:24:22;;;;;;;5.90;3.95;;;6.60;99.90;;;;;;6285827;22;20190;-52
2021/12/13 00:26:51;;;;;;;5.75;3.65;;;7.40;99.90;;;;;;6286099;22;20156;-52
2021/12/13 00:29:21;;;;;;;5.10;3.60;;;7.40;99.90;;;;;;6285563;22;20160;-52
2021/12/13 00:31:48;;;;;;;4.93;4.15;;;7.60;99.90;;;;;;6276067;22;20156;-53
2021/12/13 00:34:33;;;;;;;7.20;3.67;;;7.60;99.90;;;;;;6285815;22;20251;-53
2021/12/13 00:37:05;;;;;;;4.57;3.97;;;7.50;99.90;;;;;;6285228;22;20200;-52
2021/12/13 00:39:51;;;;;;;4.97;3.85;;;7.50;99.90;;;;;;6286757;22;20239;-52
2021/12/13 00:42:20;;;;;;;4.20;3.80;;;7.40;99.90;;;;;;6286395;22;20592;-52
2021/12/13 00:44:53;;;;;;;7.25;3.63;;;7.50;99.90;;;;;;6286197;22;20168;-52
2021/12/13 00:47:23;;;;;;;4.07;3.50;;;7.50;99.90;;;;;;6275385;22;20160;-52
2021/12/13 00:49:56;;;;;;;5.10;4.00;;;7.90;99.90;;;;;;6275075;22;20205;-53
2021/12/13 00:52:22;;;;;;;5.20;3.85;;;7.60;99.90;;;;;;6275158;22;20168;-53
2021/12/13 00:54:50;;;;;;;5.15;4.20;;;7.30;99.90;;;;;;6284965;22;20152;-53
2021/12/13 00:57:27;;;;;;;4.90;4.40;;;7.30;99.90;;;;;;6284966;22;20686;-52
2021/12/13 01:00:04;;;;;;;5.30;4.00;;;7.40;99.90;;;;;;6275464;22;20194;-52
2021/12/13 01:02:46;;;;;;;5.55;4.22;;;7.50;99.90;;;;;;6273983;22;20613;-53
2021/12/13 01:05:14;;;;;;;4.57;4.15;;;7.40;99.90;;;;;;6286054;22;20182;-52
2021/12/13 01:08:14;;;;;;;8.02;4.78;;;7.30;99.90;;;;;;6285905;22;20152;-53
2021/12/13 01:10:40;;;;;;;8.13;4.45;;;7.20;99.90;;;;;;6285346;22;20160;-53
2021/12/13 01:13:51;;;;;;;6.60;4.82;;;7.00;99.90;;;;;;6274637;22;20199;-52
2021/12/13 01:19:24;;;;;;;6.03;4.72;;;7.10;99.90;;;;;;6283852;22;20474;-52
2021/12/13 01:22:20;;;;;;;6.95;4.97;;;7.10;99.90;;;;;;6273410;22;20162;-52
2021/12/13 01:27:28;;;;;;;6.43;5.20;;;7.40;99.90;;;;;;6283852;22;20151;-52
2021/12/13 01:29:53;;;;;;;5.80;5.03;;;7.10;99.90;;;;;;6282788;22;20238;-52
2021/12/13 01:32:19;;;;;;;4.70;4.03;;;7.20;99.90;;;;;;6283087;22;20154;-53
2021/12/13 01:34:46;;;;;;;5.00;4.50;;;6.80;99.90;;;;;;6283849;22;20176;-52
2021/12/13 01:37:16;;;;;;;5.00;4.50;;;7.40;99.90;;;;;;6272662;22;20233;-52
2021/12/13 01:39:52;;;;;;;5.60;5.00;;;7.20;99.90;;;;;;6283720;22;20502;-52
2021/12/13 01:42:23;;;;;;;5.45;4.60;;;7.30;99.90;;;;;;6283481;22;20159;-52
2021/12/13 01:44:56;;;;;;;7.20;5.35;;;7.10;99.90;;;;;;6283940;22;20137;-52
2021/12/13 01:47:29;;;;;;;4.97;4.32;;;6.70;99.90;;;;;;6273397;22;20645;-52
2021/12/13 01:50:05;;;;;;;4.70;4.30;;;7.50;99.90;;;;;;6283209;22;20191;-52
2021/12/13 01:52:33;;;;;;;5.40;4.85;;;7.40;99.90;;;;;;6282538;22;20219;-52
2021/12/13 01:55:04;;;;;;;6.65;6.05;;;7.40;99.90;;;;;;6272734;22;20623;-52
2021/12/13 02:00:21;;;;;;;6.40;5.30;;;7.30;99.90;;;;;;6284357;22;20151;-52
2021/12/13 02:02:53;;;;;;;8.70;5.18;;;7.30;99.90;;;;;;6284276;22;20168;-52
2021/12/13 02:05:30;;;;;;;7.75;5.43;;;7.10;99.90;;;;;;6283532;22;20148;-52
2021/12/13 02:08:06;;;;;;;7.55;5.25;;;7.20;99.90;;;;;;6283824;22;20239;-53
2021/12/13 02:10:38;;;;;;;8.15;5.57;;;7.20;99.90;;;;;;6272693;22;20144;-52
2021/12/13 02:13:23;;;;;;;7.20;4.88;;;7.50;99.90;;;;;;6271635;22;20184;-52
2021/12/13 02:18:57;;;;;;;9.13;6.28;;;7.50;99.90;;;;;;6283669;22;20491;-52
2021/12/13 02:21:35;;;;;;;6.60;5.10;;;7.30;99.90;;;;;;6280706;22;20194;-52
2021/12/13 02:24:09;;;;;;;7.25;4.95;;;6.90;99.90;;;;;;6283445;22;20672;-52
2021/12/13 02:26:39;;;;;;;8.25;5.75;;;7.30;99.90;;;;;;6283442;22;20149;-52
2021/12/13 02:29:19;;;;;;;7.63;5.45;;;7.40;99.90;;;;;;6282683;22;20149;-53
2021/12/13 02:31:46;;;;;;;6.63;5.15;;;7.10;99.90;;;;;;6281946;22;20146;-53
2021/12/13 02:34:16;;;;;;;10.35;5.93;;;7.50;99.90;;;;;;6282359;22;20175;-53
2021/12/13 02:36:45;;;;;;;7.47;5.80;;;7.20;99.90;;;;;;6282332;22;20182;-52
2021/12/13 02:39:33;;;;;;;5.57;4.90;;;7.60;99.90;;;;;;6283073;22;20610;-52
2021/12/13 02:42:05;;;;;;;6.32;5.40;;;7.10;99.90;;;;;;6273361;22;20187;-53
2021/12/13 02:44:42;;;;;;;6.68;5.45;;;7.30;99.90;;;;;;6270634;22;20176;-52
2021/12/13 02:47:30;;;;;;;9.38;5.28;;;7.10;99.90;;;;;;6282818;22;20166;-52
2021/12/13 02:49:58;;;;;;;7.25;5.32;;;7.30;99.90;;;;;;6282395;22;20212;-52
2021/12/13 02:52:24;;;;;;;6.30;5.50;;;7.30;99.90;;;;;;6268215;22;20179;-52
2021/12/13 02:54:58;;;;;;;5.68;5.00;;;7.20;99.90;;;;;;6272503;22;20161;-53
2021/12/13 02:57:30;;;;;;;8.20;5.55;;;7.20;99.90;;;;;;6281761;22;20172;-52
2021/12/13 03:00:03;;;;;;;6.30;5.00;;;7.30;99.90;;;;;;6271795;22;20239;-52
2021/12/13 03:02:41;;;;;;;6.25;4.88;;;7.50;99.90;;;;;;6272849;22;20253;-52
2021/12/13 03:05:16;;;;;;;8.38;5.20;;;7.50;99.90;;;;;;6272693;22;20156;-53
2021/12/13 03:07:46;;;;;;;7.00;5.45;;;7.40;99.90;;;;;;6283103;22;20516;-52
2021/12/13 03:10:17;;;;;;;5.32;4.63;;;7.30;99.90;;;;;;6272457;22;20222;-53
2021/12/13 03:12:44;;;;;;;6.93;5.80;;;7.40;99.90;;;;;;6282156;22;20623;-52
2021/12/13 03:15:14;;;;;;;7.00;5.38;;;7.50;99.90;;;;;;6283156;22;20160;-52
2021/12/13 03:18:09;;;;;;;6.63;5.47;;;7.50;99.90;;;;;;6281673;22;20160;-52
2021/12/13 03:20:34;;;;;;;8.13;5.03;;;7.40;99.90;;;;;;6266699;22;20556;-52
2021/12/13 03:23:22;;;;;;;5.33;4.83;;;7.60;99.90;;;;;;6283299;22;20168;-52
2021/12/13 03:26:25;;;;;;;6.70;5.53;;;7.40;99.90;;;;;;6272323;22;20509;-52
2021/12/13 03:28:55;;;;;;;8.48;5.75;;;7.70;99.90;;;;;;6279578;22;20180;-52
2021/12/13 03:31:26;;;;;;;6.68;5.45;;;7.40;99.90;;;;;;6271977;22;20206;-52
2021/12/13 03:33:51;;;;;;;8.25;5.30;;;7.50;99.90;;;;;;6281459;22;20254;-52
2021/12/13 03:36:23;;;;;;;8.93;5.40;;;7.90;99.90;;;;;;6271944;22;20165;-52
2021/12/13 03:38:54;;;;;;;7.22;5.18;;;7.80;99.90;;;;;;6278589;22;20478;-52
2021/12/13 03:41:25;;;;;;;10.23;6.57;;;7.50;99.90;;;;;;6282773;22;20144;-52
2021/12/13 03:43:59;;;;;;;6.40;5.78;;;7.40;99.90;;;;;;6272354;22;20188;-53
2021/12/13 03:46:31;;;;;;;6.10;5.50;;;7.60;99.90;;;;;;6282841;22;20168;-53
2021/12/13 03:48:59;;;;;;;13.77;5.97;;;7.80;99.90;;;;;;6280524;22;20144;-52
2021/12/13 03:51:33;;;;;;;8.07;5.35;;;7.80;99.90;;;;;;6281829;22;20230;-52
2021/12/13 03:54:01;;;;;;;6.97;5.50;;;7.60;99.90;;;;;;6281883;22;20172;-52
2021/12/13 03:56:30;;;;;;;6.03;5.32;;;7.50;99.90;;;;;;6281112;22;20195;-52
2021/12/13 03:59:02;;;;;;;7.80;5.72;;;7.80;99.90;;;;;;6282102;22;20158;-53
2021/12/13 04:01:42;;;;;;;8.75;5.88;;;7.50;99.90;;;;;;6272031;22;20168;-53
2021/12/13 04:04:34;;;;;;;8.85;5.30;;;7.50;99.90;;;;;;6272308;22;20233;-52
2021/12/13 04:07:07;;;;;;;8.80;6.28;;;7.80;99.90;;;;;;6283240;22;20188;-52
2021/12/13 04:09:34;;;;;;;8.20;5.53;;;7.70;99.90;;;;;;6270216;22;20197;-53
2021/12/13 04:12:03;;;;;;;6.72;6.00;;;7.60;99.90;;;;;;6271386;22;20175;-52
2021/12/13 04:14:35;;;;;;;6.63;5.70;;;7.70;99.90;;;;;;6281309;22;20627;-53
2021/12/13 04:17:21;;;;;;;7.03;5.88;;;7.60;99.90;;;;;;6280275;22;20202;-52
2021/12/13 04:19:57;;;;;;;7.30;5.68;;;7.40;99.90;;;;;;6282236;22;20603;-52
2021/12/13 04:22:30;;;;;;;6.25;5.40;;;7.30;99.90;;;;;;6282701;22;20207;-53
2021/12/13 04:25:08;;;;;;;7.35;6.65;;;7.30;99.90;;;;;;6282217;22;20137;-53
2021/12/13 04:27:42;;;;;;;6.35;5.75;;;7.40;99.90;;;;;;6272040;22;20172;-52
2021/12/13 04:30:22;;;;;;;7.88;6.18;;;7.20;99.90;;;;;;6282207;22;20216;-52
2021/12/13 04:32:56;;;;;;;8.77;6.38;;;7.30;99.90;;;;;;6282434;22;20698;-53
2021/12/13 04:35:23;;;;;;;8.55;5.70;;;7.20;99.90;;;;;;6281780;22;20423;-53
2021/12/13 04:37:53;;;;;;;8.10;5.45;;;7.20;99.90;;;;;;6271067;22;20181;-52
2021/12/13 04:40:23;;;;;;;8.60;6.28;;;7.20;99.90;;;;;;6281831;22;20148;-53
2021/12/13 04:42:55;;;;;;;7.65;6.13;;;7.20;99.90;;;;;;6282198;22;20172;-52
2021/12/13 04:45:23;;;;;;;8.90;6.30;;;7.50;99.90;;;;;;6282035;22;20471;-52
2021/12/13 04:48:04;;;;;;;5.28;4.85;;;7.30;99.90;;;;;;6271812;22;20160;-52
2021/12/13 04:50:46;;;;;;;7.22;5.85;;;7.60;99.90;;;;;;6281940;22;20164;-52
2021/12/13 04:53:27;;;;;;;6.05;5.13;;;7.90;99.90;;;;;;6283194;22;20179;-52
2021/12/13 04:55:56;;;;;;;9.15;6.25;;;7.70;99.90;;;;;;6283809;22;20453;-52
2021/12/13 04:58:22;;;;;;;7.28;5.90;;;7.80;99.90;;;;;;6283555;22;20172;-52
2021/12/13 05:00:51;;;;;;;6.10;5.50;;;7.50;99.90;;;;;;6273885;22;20157;-52
2021/12/13 05:03:20;;;;;;;5.90;5.30;;;7.70;99.90;;;;;;6280997;22;20631;-52
2021/12/13 05:05:46;;;;;;;7.88;5.85;;;7.40;99.90;;;;;;6284399;22;20166;-53
2021/12/13 05:08:16;;;;;;;7.20;6.30;;;7.60;99.90;;;;;;6273684;22;20156;-52
2021/12/13 05:10:46;;;;;;;6.97;6.28;;;7.30;99.90;;;;;;6283890;22;20436;-52
2021/12/13 05:13:25;;;;;;;7.72;6.00;;;7.30;99.90;;;;;;6282013;22;20199;-52
2021/12/13 05:16:08;;;;;;;7.57;6.20;;;7.40;99.90;;;;;;6283775;22;20132;-52
2021/12/13 05:18:40;;;;;;;7.63;5.55;;;7.80;99.90;;;;;;6273635;22;20157;-52
2021/12/13 05:21:12;;;;;;;6.80;6.05;;;7.50;99.90;;;;;;6284431;22;20139;-52
2021/12/13 05:23:46;;;;;;;8.45;5.95;;;7.40;99.90;;;;;;6280964;22;20282;-53
2021/12/13 05:26:27;;;;;;;6.60;5.88;;;7.40;99.90;;;;;;6282545;22;20211;-52
2021/12/13 05:28:53;;;;;;;6.80;6.10;;;7.50;99.90;;;;;;6273328;22;20478;-52
2021/12/13 05:31:22;;;;;;;7.67;6.70;;;7.80;99.90;;;;;;6284274;22;20149;-52
2021/12/13 05:33:57;;;;;;;7.10;6.40;;;7.60;99.90;;;;;;6282385;22;20443;-52
2021/12/13 05:36:27;;;;;;;7.45;5.82;;;7.40;99.90;;;;;;6284372;22;20132;-52
2021/12/13 05:39:14;;;;;;;6.70;6.13;;;7.60;99.90;;;;;;6272871;22;20258;-52
2021/12/13 05:41:48;;;;;;;7.82;6.05;;;7.40;99.90;;;;;;6282538;22;20156;-52
2021/12/13 05:44:21;;;;;;;7.63;6.32;;;7.40;99.90;;;;;;6274012;22;20523;-52
2021/12/13 05:46:49;;;;;;;6.53;5.85;;;7.50;99.90;;;;;;6273022;22;20145;-52
2021/12/13 05:49:25;;;;;;;7.15;6.25;;;7.40;99.90;;;;;;6272098;22;20161;-52
2021/12/13 05:51:55;;;;;;;7.10;5.35;;;7.80;99.90;;;;;;6283911;22;20511;-52
2021/12/13 05:54:33;;;;;;;9.43;6.20;;;7.90;99.90;;;;;;6273327;22;20188;-53
2021/12/13 05:57:20;;;;;;;6.50;5.90;;;7.70;99.90;;;;;;6271889;22;20651;-53
2021/12/13 06:00:05;;;;;;;10.65;7.80;;;7.50;99.90;;;;;;6272876;22;20149;-52
2021/12/13 06:03:16;;;;;;;26.70;22.40;;;7.90;99.90;;;;;;6282683;22;20579;-53
2021/12/13 06:05:46;;;;;;;11.82;6.00;;;7.80;99.90;;;;;;6281543;22;20145;-53
2021/12/13 06:08:19;;;;;;;7.60;6.47;;;7.00;99.90;;;;;;6270522;22;20678;-53
2021/12/13 06:10:48;;;;;;;8.75;6.20;;;7.40;99.90;;;;;;6270819;22;20535;-53
2021/12/13 06:13:43;;;;;;;6.72;6.00;;;7.50;99.90;;;;;;6283631;22;20179;-52
2021/12/13 06:16:35;;;;;;;7.78;5.90;;;7.40;99.90;;;;;;6220993;22;20156;-52
2021/12/13 06:19:25;;;;;;;6.80;6.15;;;7.00;99.90;;;;;;6283673;22;20163;-52
2021/12/13 06:22:21;;;;;;;9.68;7.22;;;7.40;99.90;;;;;;6273066;22;20300;-53
2021/12/13 06:24:54;;;;;;;7.10;5.70;;;7.30;99.90;;;;;;6283545;22;20168;-52
2021/12/13 06:27:25;;;;;;;9.63;6.07;;;7.80;99.90;;;;;;6282103;22;20603;-52
2021/12/13 06:29:51;;;;;;;7.53;6.63;;;7.50;99.90;;;;;;6273198;22;20152;-52
2021/12/13 06:32:30;;;;;;;7.83;6.30;;;7.70;99.90;;;;;;6283429;22;20152;-52
2021/12/13 06:34:59;;;;;;;7.03;5.80;;;7.60;99.90;;;;;;6283852;22;20266;-53
2021/12/13 06:37:35;;;;;;;12.23;6.43;;;7.60;99.90;;;;;;6272372;22;20180;-52
2021/12/13 06:40:14;;;;;;;8.25;5.95;;;7.80;99.90;;;;;;6273498;22;20476;-53
2021/12/13 06:42:40;;;;;;;8.05;6.03;;;7.60;99.90;;;;;;6272954;22;20501;-52
2021/12/13 06:45:19;;;;;;;7.17;5.80;;;7.60;99.90;;;;;;6281934;22;20149;-49
2021/12/13 06:47:50;;;;;;;8.95;6.93;;;7.70;99.90;;;;;;6270460;22;20243;-53
2021/12/13 06:50:27;;;;;;;7.75;6.65;;;7.50;99.90;;;;;;6281466;22;20199;-53
2021/12/13 06:53:19;;;;;;;7.93;6.60;;;7.80;99.90;;;;;;6282972;22;20175;-51
2021/12/13 06:55:46;;;;;;;7.03;6.15;;;7.70;99.90;;;;;;6283102;22;20137;-52
2021/12/13 06:58:19;;;;;;;8.70;6.70;;;7.70;99.90;;;;;;6272544;22;20239;-51
2021/12/13 07:00:48;;;;;;;8.73;6.60;;;7.60;99.90;;;;;;6272627;22;20206;-51
2021/12/13 07:03:20;;;;;;;8.68;7.78;;;7.50;99.90;;;;;;6282391;22;20230;-51
2021/12/13 07:05:52;;;;;;;8.30;6.47;;;7.50;99.90;;;;;;6281722;22;20140;-52
2021/12/13 07:08:36;;;;;;;8.00;7.15;;;7.70;99.90;;;;;;6282813;22;20157;-52
2021/12/13 07:11:17;;;;;;;7.40;6.60;;;7.80;99.90;;;;;;6272869;22;20152;-52
2021/12/13 07:13:50;;;;;;;8.52;6.70;;;7.80;99.90;;;;;;6271552;22;20183;-52
2021/12/13 07:16:32;;;;;;;9.00;7.75;;;7.90;99.90;;;;;;6272070;22;20180;-50
2021/12/13 07:19:11;;;;;;;7.93;7.13;;;7.80;99.90;;;;;;6271754;22;20136;-51
2021/12/13 07:21:49;;;;;;;8.43;6.65;;;7.70;99.90;;;;;;6272263;22;20282;-52
2021/12/13 07:24:25;;;;;;;8.07;7.22;;;7.70;99.90;;;;;;6282245;22;20180;-51
2021/12/13 07:26:55;;;;;;;11.73;7.25;;;7.70;99.90;;;;;;6271698;22;20156;-50
2021/12/13 07:29:25;;;;;;;12.13;8.00;;;7.50;99.90;;;;;;6272957;22;20419;-51
2021/12/13 07:32:03;;;;;;;9.85;7.78;;;7.50;99.90;;;;;;6273779;22;20610;-50
2021/12/13 07:34:29;;;;;;;10.32;8.63;;;7.80;99.90;;;;;;6284030;22;20327;-49
2021/12/13 07:37:01;;;;;;;11.23;8.70;;;7.80;99.90;;;;;;6283654;22;20200;-49
2021/12/13 07:39:31;;;;;;;12.07;7.85;;;7.90;99.90;;;;;;6273685;22;20661;-50
2021/12/13 07:42:08;;;;;;;13.20;8.57;;;7.80;99.90;;;;;;6271749;22;20164;-49
2021/12/13 07:44:41;;;;;;;11.15;8.45;;;7.40;99.90;;;;;;6284202;22;20168;-50
2021/12/13 07:47:11;;;;;;;11.05;7.97;;;7.80;99.90;;;;;;6271960;22;20677;-52
2021/12/13 07:49:42;;;;;;;10.45;7.78;;;7.80;99.90;;;;;;6272089;22;20210;-53
2021/12/13 07:52:22;;;;;;;15.77;8.95;;;7.90;99.90;;;;;;6281209;22;20254;-53
2021/12/13 07:54:48;;;;;;;9.45;7.75;;;7.80;99.90;;;;;;6271424;22;20202;-53
2021/12/13 07:57:29;;;;;;;9.63;7.10;;;7.90;99.90;;;;;;6271715;22;20507;-53
2021/12/13 07:59:57;;;;;;;13.52;8.60;;;7.70;99.90;;;;;;6272212;22;20350;-54
2021/12/13 08:02:25;;;;;;;11.60;8.05;;;8.00;99.90;;;;;;6282816;22;20622;-53
2021/12/13 08:05:13;;;;;;;10.63;8.10;;;8.10;99.90;;;;;;6282163;22;20600;-53
2021/12/13 08:07:42;;;;;;;10.75;8.30;;;8.10;99.90;;;;;;6281183;22;20141;-51
2021/12/13 08:10:28;;;;;;;10.63;8.07;;;8.10;99.90;;;;;;6280869;22;20160;-50
2021/12/13 08:13:06;;;;;;;14.05;10.50;;;7.90;99.90;;;;;;6281090;22;20238;-51
2021/12/13 08:15:40;;;;;;;12.30;9.55;;;8.10;99.90;;;;;;6270544;22;20156;-50
2021/12/13 08:18:21;;;;;;;10.40;9.30;;;7.90;99.90;;;;;;6281497;22;20524;-50
2021/12/13 08:20:52;;;;;;;12.15;9.18;;;7.80;99.90;;;;;;6271866;22;20152;-50
2021/12/13 08:23:22;;;;;;;11.23;9.90;;;8.10;99.90;;;;;;6278762;22;20202;-50
2021/12/13 08:25:52;;;;;;;13.23;9.95;;;8.20;99.90;;;;;;6271570;22;20223;-51
2021/12/13 08:28:29;;;;;;;14.60;9.52;;;8.00;99.90;;;;;;6284248;22;20576;-51
2021/12/13 08:30:57;;;;;;;12.27;10.38;;;8.10;99.90;;;;;;6272647;22;20155;-50
2021/12/13 08:33:31;;;;;;;14.70;10.23;;;8.30;99.90;;;;;;6273476;22;20234;-50
2021/12/13 08:36:07;;;;;;;13.77;10.35;;;8.30;99.90;;;;;;6272542;22;20215;-50
2021/12/13 08:38:41;;;;;;;10.70;9.60;;;8.20;99.90;;;;;;6284147;22;20195;-50
2021/12/13 08:41:28;;;;;;;13.48;10.27;;;8.30;99.90;;;;;;6273887;22;20141;-50
2021/12/13 08:44:12;;;;;;;12.88;9.50;;;8.10;99.90;;;;;;6284700;22;20259;-50
2021/12/13 08:46:56;;;;;;;14.48;9.55;;;8.50;99.90;;;;;;6273312;22;20156;-51
2021/12/13 08:49:30;;;;;;;17.27;10.20;;;8.70;99.90;;;;;;6273370;22;20152;-51
2021/12/13 08:52:04;;;;;;;15.27;10.50;;;8.60;99.90;;;;;;6284674;22;20167;-51
2021/12/13 08:54:35;;;;;;;14.15;9.30;;;8.80;99.90;;;;;;6273166;22;20589;-52
2021/12/13 08:57:02;;;;;;;13.30;10.18;;;8.80;99.90;;;;;;6273625;22;20599;-50
2021/12/13 08:59:28;;;;;;;14.80;9.60;;;8.80;99.90;;;;;;6274479;22;20232;-51
2021/12/13 09:02:08;;;;;;;14.80;8.85;;;8.90;99.90;;;;;;6273985;22;20178;-49
2021/12/13 09:04:38;;;;;;;10.05;8.10;;;9.00;99.90;;;;;;6284072;22;20195;-50
2021/12/13 09:07:11;;;;;;;14.90;10.85;;;9.20;99.90;;;;;;6273828;22;20600;-50
2021/12/13 09:09:45;;;;;;;10.88;9.75;;;9.30;99.90;;;;;;6283925;22;20225;-50
2021/12/13 09:12:15;;;;;;;16.25;14.20;;;9.20;99.90;;;;;;6283781;22;20148;-50
2021/12/13 09:14:51;;;;;;;15.02;10.98;;;9.10;99.90;;;;;;6272579;22;20230;-52
2021/12/13 09:17:31;;;;;;;9.95;8.60;;;9.20;99.90;;;;;;6269943;22;20175;-50
2021/12/13 09:20:43;;;;;;;14.38;9.05;;;9.60;99.90;;;;;;6281462;22;20183;-50
2021/12/13 09:23:47;;;;;;;13.35;9.60;;;9.80;99.90;;;;;;6268666;22;20176;-51
2021/12/13 09:26:20;;;;;;;12.93;9.02;;;9.80;99.90;;;;;;6267602;22;20152;-52
2021/12/13 09:29:00;;;;;;;11.50;9.38;;;9.50;99.90;;;;;;6282851;22;20223;-51
2021/12/13 09:31:33;;;;;;;11.20;9.55;;;9.80;99.90;;;;;;6282455;22;20133;-52
2021/12/13 09:34:10;;;;;;;12.40;9.93;;;9.80;99.90;;;;;;6283500;22;20556;-50
2021/12/13 09:36:39;;;;;;;13.15;9.73;;;9.70;99.90;;;;;;6283619;22;20200;-50
2021/12/13 09:39:17;;;;;;;15.57;11.35;;;10.00;99.90;;;;;;6272871;22;20176;-50
2021/12/13 09:41:57;;;;;;;16.52;11.70;;;9.70;99.90;;;;;;6271684;22;20559;-49
2021/12/13 09:44:32;;;;;;;12.45;9.57;;;9.70;99.90;;;;;;6272497;22;20666;-49
2021/12/13 09:47:03;;;;;;;14.13;9.38;;;9.70;99.90;;;;;;6272497;22;20167;-49
2021/12/13 09:49:35;;;;;;;12.85;8.65;;;9.60;99.90;;;;;;6282279;22;20129;-50
2021/12/13 09:52:13;;;;;;;11.60;8.55;;;9.50;99.90;;;;;;6272678;22;20181;-49
2021/12/13 09:55:03;;;;;;;12.50;8.93;;;9.70;99.90;;;;;;6282500;22;20294;-49
2021/12/13 09:57:35;;;;;;;12.18;9.20;;;9.80;99.90;;;;;;6282133;22;20176;-49
2021/12/13 10:00:24;;;;;;;15.75;11.05;;;10.00;99.90;;;;;;6275508;22;20176;-49
2021/12/13 10:02:54;;;;;;;12.80;9.32;;;10.40;99.90;;;;;;6273836;22;20206;-50
2021/12/13 10:05:29;;;;;;;11.02;8.00;;;10.50;99.90;;;;;;6275092;22;20152;-50
2021/12/13 10:08:01;;;;;;;14.75;9.02;;;10.30;99.90;;;;;;6285424;22;20590;-50
2021/12/13 10:10:38;;;;;;;8.30;6.82;;;10.50;99.90;;;;;;6285446;22;20526;-52
2021/12/13 10:13:12;;;;;;;7.88;6.00;;;10.90;99.90;;;;;;6284747;22;20180;-52
2021/12/13 10:15:49;;;;;;;8.23;5.97;;;10.60;99.90;;;;;;6274084;22;20543;-52
2021/12/13 10:18:21;;;;;;;9.02;7.20;;;10.80;99.90;;;;;;6274408;22;20206;-51
2021/12/13 10:20:57;;;;;;;7.38;6.43;;;11.00;99.90;;;;;;6274061;22;20416;-51
2021/12/13 10:23:29;;;;;;;5.75;4.88;;;10.70;99.90;;;;;;6284509;22;20168;-51
2021/12/13 10:25:58;;;;;;;5.80;5.03;;;10.80;99.90;;;;;;6284841;22;20561;-50
2021/12/13 10:28:29;;;;;;;7.20;5.20;;;10.80;99.90;;;;;;6272401;22;20683;-50
2021/12/13 10:31:08;;;;;;;6.07;5.47;;;10.70;99.90;;;;;;6285770;22;20525;-49
2021/12/13 10:33:37;;;;;;;5.95;5.35;;;11.00;99.90;;;;;;6272898;22;20176;-51
2021/12/13 10:36:05;;;;;;;6.22;5.25;;;11.10;99.90;;;;;;6273488;22;20154;-51
2021/12/13 10:38:38;;;;;;;6.53;5.75;;;10.80;99.90;;;;;;6274743;22;20563;-49
2021/12/13 10:41:11;;;;;;;6.78;5.72;;;10.70;99.90;;;;;;6274045;22;20158;-50
2021/12/13 10:43:44;;;;;;;6.50;5.30;;;10.70;99.90;;;;;;6283096;22;20170;-49
2021/12/13 10:46:19;;;;;;;6.60;4.50;;;11.10;99.90;;;;;;6273836;22;20152;-50
2021/12/13 10:48:49;;;;;;;7.95;5.90;;;11.10;99.90;;;;;;6283778;22;20592;-50
2021/12/13 10:51:20;;;;;;;6.63;5.38;;;10.70;99.90;;;;;;6273597;22;20173;-51
2021/12/13 10:53:48;;;;;;;8.68;5.50;;;11.10;99.90;;;;;;6274223;22;20178;-49
2021/12/13 10:56:31;;;;;;;5.05;4.20;;;10.80;99.90;;;;;;6283772;22;20179;-50
2021/12/13 10:58:59;;;;;;;7.05;5.40;;;11.20;99.90;;;;;;6271401;22;20207;-50
2021/12/13 11:01:29;;;;;;;7.25;4.75;;;11.30;99.90;;;;;;6272269;22;20166;-50
2021/12/13 11:03:58;;;;;;;7.72;6.50;;;11.10;99.90;;;;;;6282406;22;20184;-51
2021/12/13 11:06:24;;;;;;;8.73;6.90;;;11.20;99.90;;;;;;6272361;22;20173;-51
2021/12/13 11:08:51;;;;;;;8.10;6.87;;;11.40;99.90;;;;;;6280915;22;20159;-49
2021/12/13 11:11:31;;;;;;;8.10;6.07;;;11.60;99.90;;;;;;6281863;22;20447;-49
2021/12/13 11:14:00;;;;;;;10.10;6.70;;;11.70;99.90;;;;;;6270337;22;20536;-51
2021/12/13 11:16:38;;;;;;;7.45;6.30;;;11.70;99.90;;;;;;6281450;22;20148;-51
2021/12/13 11:19:06;;;;;;;7.32;6.32;;;11.70;99.90;;;;;;6270352;22;20158;-51
2021/12/13 11:21:36;;;;;;;7.55;6.43;;;11.80;99.90;;;;;;6271073;22;20169;-50
2021/12/13 11:24:06;;;;;;;7.97;5.82;;;11.60;99.90;;;;;;6282144;22;20554;-51
2021/12/13 11:26:34;;;;;;;5.95;5.20;;;11.40;99.90;;;;;;6271803;22;20186;-50
2021/12/13 11:29:02;;;;;;;8.02;4.78;;;11.40;99.90;;;;;;6272418;22;20159;-50
2021/12/13 11:31:31;;;;;;;7.60;5.95;;;11.60;99.90;;;;;;6282069;22;20158;-51
2021/12/13 11:34:03;;;;;;;6.90;5.10;;;11.30;99.90;;;;;;6281915;22;20241;-51
2021/12/13 11:36:42;;;;;;;5.30;4.53;;;11.60;99.90;;;;;;6271936;22;20202;-50
2021/12/13 11:39:20;;;;;;;6.22;4.72;;;11.90;99.90;;;;;;6282844;22;20208;-50
2021/12/13 11:42:19;;;;;;;5.15;4.60;;;11.80;99.90;;;;;;6282141;22;20158;-50
2021/12/13 11:45:12;;;;;;;6.28;4.60;;;11.60;99.90;;;;;;6271841;22;20184;-51
2021/12/13 11:47:40;;;;;;;4.15;3.70;;;11.50;99.90;;;;;;6272186;22;20233;-51
2021/12/13 11:50:27;;;;;;;4.45;3.85;;;11.40;99.90;;;;;;6272589;22;20167;-50
2021/12/13 11:53:34;;;;;;;6.38;4.30;;;11.40;99.90;;;;;;6272646;22;20172;-50
2021/12/13 11:56:37;;;;;;;5.85;4.30;;;11.10;99.90;;;;;;6157729;23;20169;-51
2021/12/13 11:59:06;;;;;;;3.85;3.40;;;11.30;99.90;;;;;;6282345;22;20231;-51
2021/12/13 12:02:00;;;;;;;5.60;4.53;;;11.20;99.90;;;;;;6272040;22;20189;-51
2021/12/13 12:05:05;;;;;;;6.53;3.88;;;11.20;99.90;;;;;;6281737;22;20631;-51
2021/12/13 12:08:01;;;;;;;4.43;3.95;;;11.40;99.90;;;;;;6281586;22;20164;-51
2021/12/13 12:11:04;;;;;;;5.10;4.60;;;11.80;99.90;;;;;;6271799;22;20160;-51
2021/12/13 12:14:01;;;;;;;4.20;3.38;;;11.00;99.90;;;;;;6282584;22;20185;-51
2021/12/13 12:16:28;;;;;;;4.43;3.40;;;10.90;99.90;;;;;;6271927;22;20199;-51
2021/12/13 12:18:56;;;;;;;4.32;3.92;;;11.20;99.90;;;;;;6281943;22;20180;-51
2021/12/13 12:21:36;;;;;;;6.32;3.60;;;10.80;99.90;;;;;;6272069;22;20599;-50
2021/12/13 12:24:16;;;;;;;4.10;3.47;;;10.80;99.90;;;;;;6272024;22;20184;-51
2021/12/13 12:26:48;;;;;;;5.43;4.68;;;10.50;99.90;;;;;;6271822;22;20156;-50
2021/12/13 12:29:25;;;;;;;5.32;4.43;;;10.90;99.90;;;;;;6282898;22;20133;-50
2021/12/13 12:32:18;;;;;;;5.40;4.90;;;10.90;99.90;;;;;;6282717;22;20470;-50
2021/12/13 12:35:12;;;;;;;7.00;5.97;;;10.90;99.90;;;;;;6271570;22;20257;-51
2021/12/13 12:37:56;;;;;;;8.38;6.93;;;10.70;99.90;;;;;;6258992;22;20184;-50
2021/12/13 12:40:41;;;;;;;10.43;7.65;;;11.20;99.90;;;;;;6269592;22;20231;-50
2021/12/13 12:43:11;;;;;;;9.70;8.02;;;11.20;99.90;;;;;;6271640;22;20169;-50
2021/12/13 12:45:53;;;;;;;13.25;8.70;;;11.00;99.90;;;;;;6270567;22;20298;-50
2021/12/13 12:48:23;;;;;;;9.73;8.00;;;11.00;99.90;;;;;;6281056;22;20142;-52
2021/12/13 12:50:54;;;;;;;13.60;9.55;;;10.80;99.90;;;;;;6280635;22;20165;-52
2021/12/13 12:53:28;;;;;;;10.98;8.57;;;10.80;99.90;;;;;;6281350;22;20370;-53
2021/12/13 12:55:57;;;;;;;9.85;8.10;;;10.80;99.90;;;;;;6281166;22;20157;-52
2021/12/13 12:58:27;;;;;;;10.70;7.30;;;10.80;99.90;;;;;;6281446;22;20185;-52
2021/12/13 13:00:57;;;;;;;12.93;8.25;;;10.80;99.90;;;;;;6281123;22;20514;-51
2021/12/13 13:03:31;;;;;;;10.88;7.85;;;11.10;99.90;;;;;;6271253;22;20285;-52
2021/12/13 13:06:03;;;;;;;9.48;7.90;;;11.10;99.90;;;;;;6271298;22;20278;-52
2021/12/13 13:08:34;;;;;;;10.60;8.35;;;11.30;99.90;;;;;;6270589;22;20611;-53
2021/12/13 13:13:48;;;;;;;8.23;7.43;;;11.10;99.90;;;;;;6273121;22;20230;-53
2021/12/13 13:16:17;;;;;;;10.80;8.33;;;10.80;99.90;;;;;;6282096;22;20150;-53
2021/12/13 13:18:44;;;;;;;12.48;8.65;;;10.50;99.90;;;;;;6281934;22;20803;-50
2021/12/13 13:21:10;;;;;;;11.48;8.05;;;10.60;99.90;;;;;;6282975;22;20247;-52
2021/12/13 13:23:50;;;;;;;10.43;8.45;;;10.60;99.90;;;;;;6282290;22;20174;-53
2021/12/13 13:26:18;;;;;;;10.70;8.27;;;10.80;99.90;;;;;;6282032;22;20133;-52
2021/12/13 13:28:53;;;;;;;11.95;8.68;;;10.90;99.90;;;;;;6282580;22;20178;-53
2021/12/13 13:31:31;;;;;;;13.07;9.23;;;10.70;99.90;;;;;;6273506;22;20157;-53
2021/12/13 13:34:03;;;;;;;12.50;8.68;;;10.70;99.90;;;;;;6272557;22;20181;-53
2021/12/13 13:36:48;;;;;;;11.75;8.80;;;11.00;99.90;;;;;;6283491;22;20153;-53
2021/12/13 13:39:27;;;;;;;9.77;8.45;;;11.10;99.90;;;;;;6283001;22;20458;-53
2021/12/13 13:41:57;;;;;;;8.60;7.75;;;10.80;99.90;;;;;;6272464;22;20243;-53
2021/12/13 13:44:27;;;;;;;10.50;8.07;;;10.90;99.90;;;;;;6283455;22;20165;-53
2021/12/13 13:47:13;;;;;;;10.80;9.25;;;10.70;99.90;;;;;;6282699;22;20158;-52